sensor_id;sensor_type;location;lat;lon;timestamp;temperature;humidity
57709;SHT35;42558;52.388;13.390;2022-11-18T00:01:48;1.79;90.34
57709;SHT35;42558;52.388;13.390;2022-11-18T00:04:17;1.75;90.28
57709;SHT35;42558;52.388;13.390;2022-11-18T00:06:45;1.73;90.20
57709;SHT35;42558;52.388;13.390;2022-11-18T00:09:14;1.72;90.23
57709;SHT35;42558;52.388;13.390;2022-11-18T00:11:44;1.72;90.29
57709;SHT35;42558;52.388;13.390;2022-11-18T00:14:33;1.71;90.50
57709;SHT35;42558;52.388;13.390;2022-11-18T00:17:03;1.68;90.53
57709;SHT35;42558;52.388;13.390;2022-11-18T00:19:36;1.67;90.66
57709;SHT35;42558;52.388;13.390;2022-11-18T00:22:07;1.65;90.65
57709;SHT35;42558;52.388;13.390;2022-11-18T00:24:39;1.61;90.46
57709;SHT35;42558;52.388;13.390;2022-11-18T00:27:09;1.62;90.52
57709;SHT35;42558;52.388;13.390;2022-11-18T00:29:39;1.62;90.32
57709;SHT35;42558;52.388;13.390;2022-11-18T00:32:09;1.60;90.12
57709;SHT35;42558;52.388;13.390;2022-11-18T00:34:39;1.60;90.01
57709;SHT35;42558;52.388;13.390;2022-11-18T00:37:10;1.59;89.83
57709;SHT35;42558;52.388;13.390;2022-11-18T00:39:40;1.60;89.89
57709;SHT35;42558;52.388;13.390;2022-11-18T00:42:10;1.59;89.79
57709;SHT35;42558;52.388;13.390;2022-11-18T00:45:00;1.56;89.66
57709;SHT35;42558;52.388;13.390;2022-11-18T00:47:29;1.56;89.45
57709;SHT35;42558;52.388;13.390;2022-11-18T00:49:59;1.54;89.17
57709;SHT35;42558;52.388;13.390;2022-11-18T00:52:29;1.50;88.68
57709;SHT35;42558;52.388;13.390;2022-11-18T00:54:59;1.52;88.55
57709;SHT35;42558;52.388;13.390;2022-11-18T00:57:29;1.51;88.69
57709;SHT35;42558;52.388;13.390;2022-11-18T00:59:59;1.50;88.63
57709;SHT35;42558;52.388;13.390;2022-11-18T01:02:29;1.53;88.60
57709;SHT35;42558;52.388;13.390;2022-11-18T01:04:59;1.52;88.78
57709;SHT35;42558;52.388;13.390;2022-11-18T01:07:29;1.52;88.76
57709;SHT35;42558;52.388;13.390;2022-11-18T01:09:59;1.51;88.62
57709;SHT35;42558;52.388;13.390;2022-11-18T01:12:28;1.51;88.49
57709;SHT35;42558;52.388;13.390;2022-11-18T01:15:22;1.51;88.42
57709;SHT35;42558;52.388;13.390;2022-11-18T01:17:52;1.54;88.70
57709;SHT35;42558;52.388;13.390;2022-11-18T01:20:22;1.53;88.74
57709;SHT35;42558;52.388;13.390;2022-11-18T01:22:52;1.52;88.72
57709;SHT35;42558;52.388;13.390;2022-11-18T01:25:22;1.54;88.92
57709;SHT35;42558;52.388;13.390;2022-11-18T01:27:52;1.48;88.64
57709;SHT35;42558;52.388;13.390;2022-11-18T01:30:22;1.46;88.78
57709;SHT35;42558;52.388;13.390;2022-11-18T01:32:52;1.44;89.00
57709;SHT35;42558;52.388;13.390;2022-11-18T01:35:22;1.43;88.97
57709;SHT35;42558;52.388;13.390;2022-11-18T01:37:52;1.40;88.88
57709;SHT35;42558;52.388;13.390;2022-11-18T01:40:22;1.36;88.94
57709;SHT35;42558;52.388;13.390;2022-11-18T01:42:55;1.31;88.58
57709;SHT35;42558;52.388;13.390;2022-11-18T01:45:32;1.31;88.62
57709;SHT35;42558;52.388;13.390;2022-11-18T01:51:23;1.27;88.11
57709;SHT35;42558;52.388;13.390;2022-11-18T01:53:46;1.28;87.88
57709;SHT35;42558;52.388;13.390;2022-11-18T01:56:23;1.27;87.41
57709;SHT35;42558;52.388;13.390;2022-11-18T01:59:01;1.30;87.60
57709;SHT35;42558;52.388;13.390;2022-11-18T02:02:02;1.24;87.18
57709;SHT35;42558;52.388;13.390;2022-11-18T02:04:42;1.25;86.82
57709;SHT35;42558;52.388;13.390;2022-11-18T02:07:16;1.28;86.87
57709;SHT35;42558;52.388;13.390;2022-11-18T02:09:47;1.26;86.63
57709;SHT35;42558;52.388;13.390;2022-11-18T02:12:19;1.29;86.69
57709;SHT35;42558;52.388;13.390;2022-11-18T02:14:49;1.33;86.90
57709;SHT35;42558;52.388;13.390;2022-11-18T02:17:30;1.31;86.83
57709;SHT35;42558;52.388;13.390;2022-11-18T02:20:40;1.27;86.50
57709;SHT35;42558;52.388;13.390;2022-11-18T02:26:55;1.27;86.44
57709;SHT35;42558;52.388;13.390;2022-11-18T02:29:14;1.22;86.25
57709;SHT35;42558;52.388;13.390;2022-11-18T02:31:59;1.25;86.49
57709;SHT35;42558;52.388;13.390;2022-11-18T02:34:50;1.21;86.30
57709;SHT35;42558;52.388;13.390;2022-11-18T02:37:33;1.22;86.54
57709;SHT35;42558;52.388;13.390;2022-11-18T02:40:24;1.19;86.49
57709;SHT35;42558;52.388;13.390;2022-11-18T02:43:06;1.15;86.45
57709;SHT35;42558;52.388;13.390;2022-11-18T02:45:40;1.09;86.18
57709;SHT35;42558;52.388;13.390;2022-11-18T02:48:17;1.06;86.41
57709;SHT35;42558;52.388;13.390;2022-11-18T02:50:52;1.03;86.43
57709;SHT35;42558;52.388;13.390;2022-11-18T02:53:23;0.98;86.40
57709;SHT35;42558;52.388;13.390;2022-11-18T02:55:59;0.99;86.66
57709;SHT35;42558;52.388;13.390;2022-11-18T02:58:31;0.96;86.87
57709;SHT35;42558;52.388;13.390;2022-11-18T03:01:01;0.94;87.03
57709;SHT35;42558;52.388;13.390;2022-11-18T03:03:35;0.88;87.17
57709;SHT35;42558;52.388;13.390;2022-11-18T03:08:56;0.77;87.57
57709;SHT35;42558;52.388;13.390;2022-11-18T03:11:59;0.77;87.62
57709;SHT35;42558;52.388;13.390;2022-11-18T03:20:35;0.73;87.82
57709;SHT35;42558;52.388;13.390;2022-11-18T03:23:14;0.69;87.77
57709;SHT35;42558;52.388;13.390;2022-11-18T03:26:06;0.68;87.36
57709;SHT35;42558;52.388;13.390;2022-11-18T03:31:40;0.67;87.01
57709;SHT35;42558;52.388;13.390;2022-11-18T03:34:20;0.69;87.08
57709;SHT35;42558;52.388;13.390;2022-11-18T03:36:56;0.71;87.46
57709;SHT35;42558;52.388;13.390;2022-11-18T03:39:38;0.75;87.53
57709;SHT35;42558;52.388;13.390;2022-11-18T03:44:53;0.67;87.68
57709;SHT35;42558;52.388;13.390;2022-11-18T03:47:31;0.63;87.55
57709;SHT35;42558;52.388;13.390;2022-11-18T03:50:19;0.60;87.55
57709;SHT35;42558;52.388;13.390;2022-11-18T03:52:56;0.56;87.62
57709;SHT35;42558;52.388;13.390;2022-11-18T03:55:29;0.51;87.53
57709;SHT35;42558;52.388;13.390;2022-11-18T04:01:02;0.49;87.16
57709;SHT35;42558;52.388;13.390;2022-11-18T04:03:41;0.49;87.51
57709;SHT35;42558;52.388;13.390;2022-11-18T04:09:17;0.45;87.24
57709;SHT35;42558;52.388;13.390;2022-11-18T04:12:13;0.42;87.26
57709;SHT35;42558;52.388;13.390;2022-11-18T04:14:48;0.38;87.09
57709;SHT35;42558;52.388;13.390;2022-11-18T04:17:21;0.38;87.06
57709;SHT35;42558;52.388;13.390;2022-11-18T04:19:56;0.41;87.25
57709;SHT35;42558;52.388;13.390;2022-11-18T04:22:26;0.40;87.30
57709;SHT35;42558;52.388;13.390;2022-11-18T04:24:56;0.38;87.21
57709;SHT35;42558;52.388;13.390;2022-11-18T04:27:26;0.36;86.92
57709;SHT35;42558;52.388;13.390;2022-11-18T04:29:56;0.37;87.37
57709;SHT35;42558;52.388;13.390;2022-11-18T04:32:26;0.38;87.49
57709;SHT35;42558;52.388;13.390;2022-11-18T04:34:56;0.38;87.37
57709;SHT35;42558;52.388;13.390;2022-11-18T04:37:25;0.38;87.31
57709;SHT35;42558;52.388;13.390;2022-11-18T04:39:55;0.37;87.06
57709;SHT35;42558;52.388;13.390;2022-11-18T04:42:25;0.34;87.07
57709;SHT35;42558;52.388;13.390;2022-11-18T04:44:55;0.32;87.00
57709;SHT35;42558;52.388;13.390;2022-11-18T04:47:25;0.36;87.57
57709;SHT35;42558;52.388;13.390;2022-11-18T04:49:55;0.31;87.79
57709;SHT35;42558;52.388;13.390;2022-11-18T04:52:25;0.28;87.90
57709;SHT35;42558;52.388;13.390;2022-11-18T04:54:55;0.30;88.04
57709;SHT35;42558;52.388;13.390;2022-11-18T04:57:25;0.24;87.70
57709;SHT35;42558;52.388;13.390;2022-11-18T04:59:55;0.19;87.48
57709;SHT35;42558;52.388;13.390;2022-11-18T05:02:24;0.12;87.71
57709;SHT35;42558;52.388;13.390;2022-11-18T05:04:54;0.13;88.02
57709;SHT35;42558;52.388;13.390;2022-11-18T05:07:27;0.12;87.86
57709;SHT35;42558;52.388;13.390;2022-11-18T05:09:57;0.11;87.87
57709;SHT35;42558;52.388;13.390;2022-11-18T05:12:27;0.11;87.92
57709;SHT35;42558;52.388;13.390;2022-11-18T05:15:16;0.10;88.02
57709;SHT35;42558;52.388;13.390;2022-11-18T05:17:49;0.03;87.67
57709;SHT35;42558;52.388;13.390;2022-11-18T05:20:17;0.03;87.90
57709;SHT35;42558;52.388;13.390;2022-11-18T05:22:47;0.02;87.89
57709;SHT35;42558;52.388;13.390;2022-11-18T05:25:17;0.02;87.89
57709;SHT35;42558;52.388;13.390;2022-11-18T05:27:47;0.01;87.93
57709;SHT35;42558;52.388;13.390;2022-11-18T05:30:16;-0.03;87.67
57709;SHT35;42558;52.388;13.390;2022-11-18T05:32:46;-0.00;87.75
57709;SHT35;42558;52.388;13.390;2022-11-18T05:35:16;0.01;87.84
57709;SHT35;42558;52.388;13.390;2022-11-18T05:37:46;0.03;87.89
57709;SHT35;42558;52.388;13.390;2022-11-18T05:40:16;-0.01;87.74
57709;SHT35;42558;52.388;13.390;2022-11-18T05:42:46;-0.05;87.65
57709;SHT35;42558;52.388;13.390;2022-11-18T05:45:33;-0.02;87.88
57709;SHT35;42558;52.388;13.390;2022-11-18T05:48:02;-0.01;88.19
57709;SHT35;42558;52.388;13.390;2022-11-18T05:50:35;-0.01;88.18
57709;SHT35;42558;52.388;13.390;2022-11-18T05:53:05;-0.01;88.37
57709;SHT35;42558;52.388;13.390;2022-11-18T05:55:38;-0.01;88.49
57709;SHT35;42558;52.388;13.390;2022-11-18T05:58:15;0.03;88.88
57709;SHT35;42558;52.388;13.390;2022-11-18T06:00:46;-0.02;88.61
57709;SHT35;42558;52.388;13.390;2022-11-18T06:03:24;-0.01;88.62
57709;SHT35;42558;52.388;13.390;2022-11-18T06:06:00;-0.03;88.58
57709;SHT35;42558;52.388;13.390;2022-11-18T06:08:34;-0.02;88.63
57709;SHT35;42558;52.388;13.390;2022-11-18T06:11:09;0.01;88.76
57709;SHT35;42558;52.388;13.390;2022-11-18T06:13:49;0.01;88.58
57709;SHT35;42558;52.388;13.390;2022-11-18T06:16:29;-0.03;88.34
57709;SHT35;42558;52.388;13.390;2022-11-18T06:19:09;-0.04;87.98
57709;SHT35;42558;52.388;13.390;2022-11-18T06:21:39;-0.02;87.89
57709;SHT35;42558;52.388;13.390;2022-11-18T06:24:09;-0.07;87.06
57709;SHT35;42558;52.388;13.390;2022-11-18T06:26:40;-0.14;86.29
57709;SHT35;42558;52.388;13.390;2022-11-18T06:29:12;-0.15;86.07
57709;SHT35;42558;52.388;13.390;2022-11-18T06:31:52;-0.13;86.07
57709;SHT35;42558;52.388;13.390;2022-11-18T06:34:22;-0.14;86.01
57709;SHT35;42558;52.388;13.390;2022-11-18T06:36:52;-0.14;85.76
57709;SHT35;42558;52.388;13.390;2022-11-18T06:39:22;-0.13;85.72
57709;SHT35;42558;52.388;13.390;2022-11-18T06:41:52;-0.12;85.54
57709;SHT35;42558;52.388;13.390;2022-11-18T06:44:22;-0.10;85.50
57709;SHT35;42558;52.388;13.390;2022-11-18T06:46:52;-0.15;85.00
57709;SHT35;42558;52.388;13.390;2022-11-18T06:49:23;-0.14;84.99
57709;SHT35;42558;52.388;13.390;2022-11-18T06:51:53;-0.15;84.62
57709;SHT35;42558;52.388;13.390;2022-11-18T06:54:21;-0.16;84.23
57709;SHT35;42558;52.388;13.390;2022-11-18T06:56:50;-0.21;84.19
57709;SHT35;42558;52.388;13.390;2022-11-18T06:59:20;-0.17;84.58
57709;SHT35;42558;52.388;13.390;2022-11-18T07:01:51;-0.18;84.50
57709;SHT35;42558;52.388;13.390;2022-11-18T07:04:22;-0.23;84.44
57709;SHT35;42558;52.388;13.390;2022-11-18T07:06:52;-0.28;84.42
57709;SHT35;42558;52.388;13.390;2022-11-18T07:09:22;-0.32;84.90
57709;SHT35;42558;52.388;13.390;2022-11-18T07:11:52;-0.36;85.20
57709;SHT35;42558;52.388;13.390;2022-11-18T07:14:21;-0.39;85.95
57709;SHT35;42558;52.388;13.390;2022-11-18T07:16:52;-0.46;86.54
57709;SHT35;42558;52.388;13.390;2022-11-18T07:19:21;-0.56;87.06
57709;SHT35;42558;52.388;13.390;2022-11-18T07:21:51;-0.60;87.74
57709;SHT35;42558;52.388;13.390;2022-11-18T07:24:21;-0.64;88.22
57709;SHT35;42558;52.388;13.390;2022-11-18T07:26:51;-0.75;88.69
57709;SHT35;42558;52.388;13.390;2022-11-18T07:29:21;-0.76;88.96
57709;SHT35;42558;52.388;13.390;2022-11-18T07:31:49;-0.81;89.20
57709;SHT35;42558;52.388;13.390;2022-11-18T07:34:18;-0.80;89.30
57709;SHT35;42558;52.388;13.390;2022-11-18T07:36:46;-0.84;89.28
57709;SHT35;42558;52.388;13.390;2022-11-18T07:39:15;-0.87;89.28
57709;SHT35;42558;52.388;13.390;2022-11-18T07:41:43;-0.84;89.29
57709;SHT35;42558;52.388;13.390;2022-11-18T07:44:12;-0.90;89.01
57709;SHT35;42558;52.388;13.390;2022-11-18T07:46:40;-0.81;89.10
57709;SHT35;42558;52.388;13.390;2022-11-18T07:49:09;-0.83;88.08
57709;SHT35;42558;52.388;13.390;2022-11-18T07:51:40;-0.79;87.55
57709;SHT35;42558;52.388;13.390;2022-11-18T07:54:09;-0.72;87.22
57709;SHT35;42558;52.388;13.390;2022-11-18T07:56:40;-0.63;86.94
57709;SHT35;42558;52.388;13.390;2022-11-18T07:59:08;-0.57;86.15
57709;SHT35;42558;52.388;13.390;2022-11-18T08:01:38;-0.57;84.62
57709;SHT35;42558;52.388;13.390;2022-11-18T08:04:09;-0.50;84.34
57709;SHT35;42558;52.388;13.390;2022-11-18T08:06:39;-0.43;84.20
57709;SHT35;42558;52.388;13.390;2022-11-18T08:09:10;-0.44;83.17
57709;SHT35;42558;52.388;13.390;2022-11-18T08:11:40;-0.38;82.72
57709;SHT35;42558;52.388;13.390;2022-11-18T08:14:10;-0.31;82.50
57709;SHT35;42558;52.388;13.390;2022-11-18T08:16:39;-0.32;81.64
57709;SHT35;42558;52.388;13.390;2022-11-18T08:19:09;-0.26;81.78
57709;SHT35;42558;52.388;13.390;2022-11-18T08:21:39;-0.24;81.25
57709;SHT35;42558;52.388;13.390;2022-11-18T08:24:09;-0.23;80.99
57709;SHT35;42558;52.388;13.390;2022-11-18T08:33:34;-0.22;80.39
57709;SHT35;42558;52.388;13.390;2022-11-18T08:36:08;-0.22;79.88
57709;SHT35;42558;52.388;13.390;2022-11-18T08:38:43;-0.14;80.47
57709;SHT35;42558;52.388;13.390;2022-11-18T08:41:14;-0.05;80.17
57709;SHT35;42558;52.388;13.390;2022-11-18T08:43:57;-0.03;80.15
57709;SHT35;42558;52.388;13.390;2022-11-18T08:46:28;-0.13;79.39
57709;SHT35;42558;52.388;13.390;2022-11-18T08:48:59;-0.15;79.74
57709;SHT35;42558;52.388;13.390;2022-11-18T08:51:29;-0.08;79.53
57709;SHT35;42558;52.388;13.390;2022-11-18T08:53:59;-0.06;79.23
57709;SHT35;42558;52.388;13.390;2022-11-18T08:56:29;-0.05;79.55
57709;SHT35;42558;52.388;13.390;2022-11-18T08:58:59;-0.07;79.58
57709;SHT35;42558;52.388;13.390;2022-11-18T09:01:29;-0.08;79.12
57709;SHT35;42558;52.388;13.390;2022-11-18T09:03:59;-0.12;78.92
57709;SHT35;42558;52.388;13.390;2022-11-18T09:06:29;-0.01;79.67
57709;SHT35;42558;52.388;13.390;2022-11-18T09:08:59;-0.01;79.28
57709;SHT35;42558;52.388;13.390;2022-11-18T09:11:36;-0.10;79.23
57709;SHT35;42558;52.388;13.390;2022-11-18T09:14:09;-0.07;79.39
57709;SHT35;42558;52.388;13.390;2022-11-18T09:17:01;-0.12;79.29
57709;SHT35;42558;52.388;13.390;2022-11-18T09:19:31;-0.11;79.30
57709;SHT35;42558;52.388;13.390;2022-11-18T09:22:16;-0.12;79.12
57709;SHT35;42558;52.388;13.390;2022-11-18T09:24:44;-0.18;78.97
57709;SHT35;42558;52.388;13.390;2022-11-18T09:27:13;-0.15;79.19
57709;SHT35;42558;52.388;13.390;2022-11-18T09:29:44;-0.22;78.89
57709;SHT35;42558;52.388;13.390;2022-11-18T09:32:13;-0.18;79.42
57709;SHT35;42558;52.388;13.390;2022-11-18T09:34:41;-0.20;78.82
57709;SHT35;42558;52.388;13.390;2022-11-18T09:37:10;-0.21;79.70
57709;SHT35;42558;52.388;13.390;2022-11-18T09:39:38;-0.24;78.93
57709;SHT35;42558;52.388;13.390;2022-11-18T09:49:09;-0.28;79.35
57709;SHT35;42558;52.388;13.390;2022-11-18T09:51:46;-0.40;79.28
57709;SHT35;42558;52.388;13.390;2022-11-18T09:54:21;-0.43;79.09
57709;SHT35;42558;52.388;13.390;2022-11-18T09:56:53;-0.41;79.20
57709;SHT35;42558;52.388;13.390;2022-11-18T09:59:25;-0.46;79.60
57709;SHT35;42558;52.388;13.390;2022-11-18T10:05:27;-0.45;79.25
57709;SHT35;42558;52.388;13.390;2022-11-18T10:13:58;-0.47;78.02
57709;SHT35;42558;52.388;13.390;2022-11-18T10:22:47;-0.30;78.74
57709;SHT35;42558;52.388;13.390;2022-11-18T10:25:22;-0.23;78.72
57709;SHT35;42558;52.388;13.390;2022-11-18T10:27:53;-0.13;79.01
57709;SHT35;42558;52.388;13.390;2022-11-18T10:30:43;-0.17;79.08
57709;SHT35;42558;52.388;13.390;2022-11-18T10:33:24;-0.23;78.88
57709;SHT35;42558;52.388;13.390;2022-11-18T10:39:10;-0.36;78.41
57709;SHT35;42558;52.388;13.390;2022-11-18T10:41:48;-0.53;78.47
57709;SHT35;42558;52.388;13.390;2022-11-18T10:44:28;-0.55;78.63
57709;SHT35;42558;52.388;13.390;2022-11-18T10:47:15;-0.54;78.73
57709;SHT35;42558;52.388;13.390;2022-11-18T10:49:59;-0.50;79.13
57709;SHT35;42558;52.388;13.390;2022-11-18T10:52:51;-0.48;79.38
57709;SHT35;42558;52.388;13.390;2022-11-18T10:55:23;-0.52;79.26
57709;SHT35;42558;52.388;13.390;2022-11-18T11:00:40;-0.47;79.76
57709;SHT35;42558;52.388;13.390;2022-11-18T11:03:23;-0.52;79.23
57709;SHT35;42558;52.388;13.390;2022-11-18T11:11:31;-0.43;78.83
57709;SHT35;42558;52.388;13.390;2022-11-18T11:14:30;-0.47;79.19
57709;SHT35;42558;52.388;13.390;2022-11-18T11:17:34;-0.43;79.26
57709;SHT35;42558;52.388;13.390;2022-11-18T11:20:14;-0.38;79.45
57709;SHT35;42558;52.388;13.390;2022-11-18T11:22:53;-0.43;78.84
57709;SHT35;42558;52.388;13.390;2022-11-18T11:25:30;-0.54;78.14
57709;SHT35;42558;52.388;13.390;2022-11-18T11:28:28;-0.50;78.29
57709;SHT35;42558;52.388;13.390;2022-11-18T11:31:11;-0.51;78.43
57709;SHT35;42558;52.388;13.390;2022-11-18T11:51:09;-0.27;78.15
57709;SHT35;42558;52.388;13.390;2022-11-18T11:56:40;-0.26;77.72
57709;SHT35;42558;52.388;13.390;2022-11-18T12:07:45;-0.16;77.87
57709;SHT35;42558;52.388;13.390;2022-11-18T12:10:35;-0.19;77.64
57709;SHT35;42558;52.388;13.390;2022-11-18T12:19:10;-0.06;78.03
57709;SHT35;42558;52.388;13.390;2022-11-18T12:43:05;0.01;78.01
57709;SHT35;42558;52.388;13.390;2022-11-18T12:48:55;0.07;77.57
57709;SHT35;42558;52.388;13.390;2022-11-18T12:57:18;-0.07;76.63
57709;SHT35;42558;52.388;13.390;2022-11-18T12:59:52;0.03;76.74
57709;SHT35;42558;52.388;13.390;2022-11-18T13:02:24;0.04;76.26
57709;SHT35;42558;52.388;13.390;2022-11-18T13:05:09;0.03;75.82
57709;SHT35;42558;52.388;13.390;2022-11-18T13:10:54;0.04;75.73
57709;SHT35;42558;52.388;13.390;2022-11-18T13:14:05;0.05;75.12
57709;SHT35;42558;52.388;13.390;2022-11-18T13:17:21;-0.01;74.93
57709;SHT35;42558;52.388;13.390;2022-11-18T13:20:26;-0.03;74.29
57709;SHT35;42558;52.388;13.390;2022-11-18T13:26:03;-0.19;73.07
57709;SHT35;42558;52.388;13.390;2022-11-18T13:32:26;-0.36;73.40
57709;SHT35;42558;52.388;13.390;2022-11-18T13:35:01;-0.40;72.94
57709;SHT35;42558;52.388;13.390;2022-11-18T13:37:48;-0.43;73.25
57709;SHT35;42558;52.388;13.390;2022-11-18T13:40:28;-0.49;73.33
57709;SHT35;42558;52.388;13.390;2022-11-18T13:43:00;-0.53;73.86
57709;SHT35;42558;52.388;13.390;2022-11-18T13:45:29;-0.59;74.05
57709;SHT35;42558;52.388;13.390;2022-11-18T13:48:09;-0.59;74.23
57709;SHT35;42558;52.388;13.390;2022-11-18T13:50:46;-0.64;73.96
57709;SHT35;42558;52.388;13.390;2022-11-18T13:56:06;-0.66;73.60
57709;SHT35;42558;52.388;13.390;2022-11-18T13:58:56;-0.66;74.01
57709;SHT35;42558;52.388;13.390;2022-11-18T14:01:47;-0.65;73.49
57709;SHT35;42558;52.388;13.390;2022-11-18T14:04:27;-0.63;73.63
57709;SHT35;42558;52.388;13.390;2022-11-18T14:10:07;-0.54;72.79
57709;SHT35;42558;52.388;13.390;2022-11-18T14:12:43;-0.55;72.72
57709;SHT35;42558;52.388;13.390;2022-11-18T14:17:57;-0.55;72.75
57709;SHT35;42558;52.388;13.390;2022-11-18T14:20:30;-0.57;72.75
57709;SHT35;42558;52.388;13.390;2022-11-18T14:22:59;-0.59;72.99
57709;SHT35;42558;52.388;13.390;2022-11-18T14:25:32;-0.62;73.00
57709;SHT35;42558;52.388;13.390;2022-11-18T14:28:11;-0.63;72.71
57709;SHT35;42558;52.388;13.390;2022-11-18T14:33:37;-0.69;73.30
57709;SHT35;42558;52.388;13.390;2022-11-18T14:36:12;-0.72;73.49
57709;SHT35;42558;52.388;13.390;2022-11-18T14:38:46;-0.75;73.47
57709;SHT35;42558;52.388;13.390;2022-11-18T14:41:39;-0.77;73.98
57709;SHT35;42558;52.388;13.390;2022-11-18T14:44:15;-0.77;73.64
57709;SHT35;42558;52.388;13.390;2022-11-18T14:46:49;-0.80;74.11
57709;SHT35;42558;52.388;13.390;2022-11-18T14:49:26;-0.81;73.87
57709;SHT35;42558;52.388;13.390;2022-11-18T14:52:00;-0.83;74.20
57709;SHT35;42558;52.388;13.390;2022-11-18T14:54:32;-0.86;74.45
57709;SHT35;42558;52.388;13.390;2022-11-18T14:57:04;-0.88;74.46
57709;SHT35;42558;52.388;13.390;2022-11-18T14:59:35;-0.87;74.28
57709;SHT35;42558;52.388;13.390;2022-11-18T15:02:05;-0.90;74.45
57709;SHT35;42558;52.388;13.390;2022-11-18T15:04:42;-0.94;74.62
57709;SHT35;42558;52.388;13.390;2022-11-18T15:07:13;-0.93;74.53
57709;SHT35;42558;52.388;13.390;2022-11-18T15:09:51;-0.98;74.85
57709;SHT35;42558;52.388;13.390;2022-11-18T15:12:21;-1.00;74.69
57709;SHT35;42558;52.388;13.390;2022-11-18T15:14:51;-0.98;74.52
57709;SHT35;42558;52.388;13.390;2022-11-18T15:17:21;-1.01;74.68
57709;SHT35;42558;52.388;13.390;2022-11-18T15:19:51;-1.09;75.54
57709;SHT35;42558;52.388;13.390;2022-11-18T15:22:21;-1.08;75.00
57709;SHT35;42558;52.388;13.390;2022-11-18T15:24:51;-1.12;75.29
57709;SHT35;42558;52.388;13.390;2022-11-18T15:27:20;-1.14;75.44
57709;SHT35;42558;52.388;13.390;2022-11-18T15:29:50;-1.19;75.60
57709;SHT35;42558;52.388;13.390;2022-11-18T15:32:20;-1.24;75.78
57709;SHT35;42558;52.388;13.390;2022-11-18T15:34:50;-1.26;75.75
57709;SHT35;42558;52.388;13.390;2022-11-18T15:37:20;-1.26;75.55
57709;SHT35;42558;52.388;13.390;2022-11-18T15:39:49;-1.24;75.22
57709;SHT35;42558;52.388;13.390;2022-11-18T15:42:19;-1.26;75.41
57709;SHT35;42558;52.388;13.390;2022-11-18T15:44:51;-1.30;75.72
57709;SHT35;42558;52.388;13.390;2022-11-18T15:47:21;-1.37;76.02
57709;SHT35;42558;52.388;13.390;2022-11-18T15:49:51;-1.41;76.30
57709;SHT35;42558;52.388;13.390;2022-11-18T15:52:21;-1.44;76.47
57709;SHT35;42558;52.388;13.390;2022-11-18T15:54:51;-1.48;76.72
57709;SHT35;42558;52.388;13.390;2022-11-18T15:57:21;-1.52;76.89
57709;SHT35;42558;52.388;13.390;2022-11-18T15:59:51;-1.54;76.84
57709;SHT35;42558;52.388;13.390;2022-11-18T16:02:21;-1.54;76.86
57709;SHT35;42558;52.388;13.390;2022-11-18T16:04:50;-1.57;76.90
57709;SHT35;42558;52.388;13.390;2022-11-18T16:07:20;-1.54;76.50
57709;SHT35;42558;52.388;13.390;2022-11-18T16:09:50;-1.58;76.71
57709;SHT35;42558;52.388;13.390;2022-11-18T16:12:39;-1.64;77.08
57709;SHT35;42558;52.388;13.390;2022-11-18T16:15:15;-1.63;76.87
57709;SHT35;42558;52.388;13.390;2022-11-18T16:18:05;-1.63;76.74
57709;SHT35;42558;52.388;13.390;2022-11-18T16:20:33;-1.62;76.57
57709;SHT35;42558;52.388;13.390;2022-11-18T16:23:01;-1.64;76.62
57709;SHT35;42558;52.388;13.390;2022-11-18T16:25:31;-1.69;77.09
57709;SHT35;42558;52.388;13.390;2022-11-18T16:27:59;-1.71;77.07
57709;SHT35;42558;52.388;13.390;2022-11-18T16:30:35;-1.69;76.84
57709;SHT35;42558;52.388;13.390;2022-11-18T16:33:24;-1.70;76.67
57709;SHT35;42558;52.388;13.390;2022-11-18T16:35:54;-1.73;76.89
57709;SHT35;42558;52.388;13.390;2022-11-18T16:38:24;-1.79;77.37
57709;SHT35;42558;52.388;13.390;2022-11-18T16:40:55;-1.82;77.59
57709;SHT35;42558;52.388;13.390;2022-11-18T16:43:26;-1.87;77.94
57709;SHT35;42558;52.388;13.390;2022-11-18T16:45:56;-1.90;78.27
57709;SHT35;42558;52.388;13.390;2022-11-18T16:48:27;-1.93;78.42
57709;SHT35;42558;52.388;13.390;2022-11-18T16:53:51;-1.96;79.25
57709;SHT35;42558;52.388;13.390;2022-11-18T16:56:25;-1.96;79.38
57709;SHT35;42558;52.388;13.390;2022-11-18T16:59:04;-1.98;79.49
57709;SHT35;42558;52.388;13.390;2022-11-18T17:01:43;-2.01;79.85
57709;SHT35;42558;52.388;13.390;2022-11-18T17:04:14;-2.04;80.16
57709;SHT35;42558;52.388;13.390;2022-11-18T17:06:45;-2.04;80.53
57709;SHT35;42558;52.388;13.390;2022-11-18T17:09:16;-2.05;80.61
57709;SHT35;42558;52.388;13.390;2022-11-18T17:11:52;-2.08;80.63
57709;SHT35;42558;52.388;13.390;2022-11-18T17:14:24;-2.11;80.69
57709;SHT35;42558;52.388;13.390;2022-11-18T17:16:54;-2.17;80.64
57709;SHT35;42558;52.388;13.390;2022-11-18T17:19:24;-2.21;80.94
57709;SHT35;42558;52.388;13.390;2022-11-18T17:21:54;-2.17;81.52
57709;SHT35;42558;52.388;13.390;2022-11-18T17:24:25;-2.16;81.35
57709;SHT35;42558;52.388;13.390;2022-11-18T17:26:55;-2.17;81.18
57709;SHT35;42558;52.388;13.390;2022-11-18T17:29:25;-2.18;81.17
57709;SHT35;42558;52.388;13.390;2022-11-18T17:31:55;-2.15;81.30
57709;SHT35;42558;52.388;13.390;2022-11-18T17:34:25;-2.12;81.50
57709;SHT35;42558;52.388;13.390;2022-11-18T17:36:54;-2.09;81.56
57709;SHT35;42558;52.388;13.390;2022-11-18T17:39:31;-2.10;81.42
57709;SHT35;42558;52.388;13.390;2022-11-18T17:42:01;-2.12;81.42
57709;SHT35;42558;52.388;13.390;2022-11-18T17:44:42;-2.09;81.76
57709;SHT35;42558;52.388;13.390;2022-11-18T17:47:10;-2.06;81.84
57709;SHT35;42558;52.388;13.390;2022-11-18T17:49:38;-2.04;81.74
57709;SHT35;42558;52.388;13.390;2022-11-18T17:52:07;-2.04;81.60
57709;SHT35;42558;52.388;13.390;2022-11-18T17:54:35;-2.06;81.47
57709;SHT35;42558;52.388;13.390;2022-11-18T17:57:04;-2.09;81.44
57709;SHT35;42558;52.388;13.390;2022-11-18T17:59:32;-2.11;81.49
57709;SHT35;42558;52.388;13.390;2022-11-18T18:02:01;-2.11;81.52
57709;SHT35;42558;52.388;13.390;2022-11-18T18:04:29;-2.14;81.48
57709;SHT35;42558;52.388;13.390;2022-11-18T18:06:58;-2.13;81.75
57709;SHT35;42558;52.388;13.390;2022-11-18T18:09:26;-2.16;81.50
57709;SHT35;42558;52.388;13.390;2022-11-18T18:11:59;-2.17;81.58
57709;SHT35;42558;52.388;13.390;2022-11-18T18:14:49;-2.19;81.64
57709;SHT35;42558;52.388;13.390;2022-11-18T18:17:19;-2.22;81.64
57709;SHT35;42558;52.388;13.390;2022-11-18T18:19:49;-2.26;81.50
57709;SHT35;42558;52.388;13.390;2022-11-18T18:22:19;-2.29;81.74
57709;SHT35;42558;52.388;13.390;2022-11-18T18:24:49;-2.30;81.91
57709;SHT35;42558;52.388;13.390;2022-11-18T18:27:18;-2.34;81.82
57709;SHT35;42558;52.388;13.390;2022-11-18T18:29:48;-2.35;81.90
57709;SHT35;42558;52.388;13.390;2022-11-18T18:32:18;-2.36;82.07
57709;SHT35;42558;52.388;13.390;2022-11-18T18:34:48;-2.35;82.30
57709;SHT35;42558;52.388;13.390;2022-11-18T18:37:18;-2.34;82.25
57709;SHT35;42558;52.388;13.390;2022-11-18T18:39:48;-2.40;82.05